Time;durP1;ratioP1;P1;durP2;ratioP2;P2;SDS_P1;SDS_P2;PMS_P1;PMS_P2;Temp;Humidity;BMP_temperature;BMP_pressure;BME280_temperature;BME280_humidity;BME280_pressure;Samples;Min_cycle;Max_cycle;Signal;HPM_P1;HPM_P2
2021/08/04 00:00:23;;;;;;;2.33;2.13;;;14.80;99.90;;;;;;4968965;28;20213;-78
2021/08/04 00:02:51;;;;;;;2.30;2.00;;;14.80;99.90;;;;;;4968777;28;20204;-80
2021/08/04 00:05:18;;;;;;;2.47;2.27;;;14.80;99.90;;;;;;4969054;28;20205;-78
2021/08/04 00:07:46;;;;;;;2.60;2.40;;;14.70;99.90;;;;;;4977747;28;20204;-80
2021/08/04 00:10:13;;;;;;;2.20;1.90;;;14.70;99.90;;;;;;4978318;28;20212;-80
2021/08/04 00:12:40;;;;;;;2.67;2.10;;;14.70;99.90;;;;;;4976028;28;20223;-77
2021/08/04 00:15:08;;;;;;;2.20;2.00;;;14.80;99.90;;;;;;4974420;28;20208;-80
2021/08/04 00:17:35;;;;;;;1.87;1.77;;;14.70;99.90;;;;;;4969610;28;20212;-79
2021/08/04 00:20:04;;;;;;;1.80;1.70;;;14.70;99.90;;;;;;4968818;28;20208;-80
2021/08/04 00:22:31;;;;;;;2.03;1.93;;;14.80;99.90;;;;;;4969168;28;20406;-80
2021/08/04 00:24:57;;;;;;;2.20;2.00;;;14.80;99.90;;;;;;4969404;28;20223;-78
2021/08/04 00:27:26;;;;;;;2.73;2.43;;;14.70;99.90;;;;;;4968566;28;20200;-80
2021/08/04 00:29:53;;;;;;;3.03;2.63;;;14.80;99.90;;;;;;4969045;28;20668;-79
2021/08/04 00:32:20;;;;;;;2.33;2.13;;;14.80;99.90;;;;;;4968474;28;20518;-78
2021/08/04 00:34:47;;;;;;;4.20;2.43;;;14.90;99.90;;;;;;4968918;28;20208;-79
2021/08/04 00:37:16;;;;;;;3.50;2.37;;;14.90;99.90;;;;;;4968587;28;20635;-80
2021/08/04 00:39:42;;;;;;;3.67;2.97;;;14.90;99.90;;;;;;4968488;28;20197;-77
2021/08/04 00:42:10;;;;;;;3.13;2.72;;;14.80;99.90;;;;;;4968706;28;20216;-77
2021/08/04 00:44:37;;;;;;;2.83;2.30;;;14.90;99.90;;;;;;4968239;28;20248;-78
2021/08/04 00:47:04;;;;;;;2.80;2.20;;;14.90;99.90;;;;;;4967677;28;20220;-78
2021/08/04 00:49:33;;;;;;;2.00;1.80;;;14.90;99.90;;;;;;4968580;28;20701;-78
2021/08/04 00:51:59;;;;;;;2.63;2.38;;;14.80;99.90;;;;;;4968054;28;20304;-79
2021/08/04 00:54:27;;;;;;;2.03;1.80;;;14.80;99.90;;;;;;4984474;28;20216;-78
2021/08/04 00:56:54;;;;;;;3.53;2.40;;;14.80;99.90;;;;;;4987586;28;20200;-78
2021/08/04 00:59:21;;;;;;;3.40;3.10;;;14.80;99.90;;;;;;4975540;28;20223;-79
2021/08/04 01:01:50;;;;;;;2.27;2.07;;;14.80;99.90;;;;;;4967929;28;20212;-79
2021/08/04 01:04:22;;;;;;;4.30;2.33;;;14.80;99.90;;;;;;4968423;28;20200;-79
2021/08/04 01:06:55;;;;;;;3.25;2.53;;;14.80;99.90;;;;;;4973101;28;20200;-79
2021/08/04 01:09:26;;;;;;;2.80;2.60;;;14.80;99.90;;;;;;4986702;28;20204;-80
2021/08/04 01:11:59;;;;;;;3.93;2.77;;;14.80;99.90;;;;;;4972799;28;20211;-80
2021/08/04 01:14:28;;;;;;;2.50;2.30;;;14.70;99.90;;;;;;4968057;28;20209;-78
2021/08/04 01:16:56;;;;;;;2.33;2.00;;;14.80;99.90;;;;;;4967968;28;20205;-79
2021/08/04 01:19:36;;;;;;;2.77;2.13;;;14.80;99.90;;;;;;4968592;28;20542;-79
2021/08/04 01:22:13;;;;;;;2.77;2.47;;;14.80;99.90;;;;;;4967731;28;20211;-80
2021/08/04 01:24:48;;;;;;;2.45;2.25;;;14.70;99.90;;;;;;4974535;28;20181;-80
2021/08/04 01:27:17;;;;;;;2.83;2.57;;;14.70;99.90;;;;;;4984739;28;20204;-81
2021/08/04 01:29:45;;;;;;;3.87;2.77;;;14.70;99.90;;;;;;4973185;28;20205;-80
2021/08/04 01:32:13;;;;;;;4.30;2.70;;;14.70;99.90;;;;;;4968592;28;20763;-79
2021/08/04 01:34:41;;;;;;;2.37;1.83;;;14.60;99.90;;;;;;4967848;28;20211;-79
2021/08/04 01:37:09;;;;;;;2.17;2.03;;;14.60;99.90;;;;;;4967029;28;20205;-79
2021/08/04 01:39:36;;;;;;;2.20;1.87;;;14.60;99.90;;;;;;4967341;28;20579;-79
2021/08/04 01:42:05;;;;;;;2.20;2.00;;;14.60;99.90;;;;;;4967004;28;20192;-78
2021/08/04 01:44:35;;;;;;;2.10;1.90;;;14.60;99.90;;;;;;4966343;28;20240;-79
2021/08/04 01:47:02;;;;;;;2.63;2.13;;;14.60;99.90;;;;;;4967164;28;20216;-78
2021/08/04 01:49:30;;;;;;;2.33;2.13;;;14.50;99.90;;;;;;4966936;28;20208;-79
2021/08/04 01:51:58;;;;;;;2.70;2.10;;;14.50;99.90;;;;;;4966760;28;20223;-79
2021/08/04 01:54:26;;;;;;;3.07;2.30;;;14.50;99.90;;;;;;4967205;28;20228;-80
2021/08/04 01:56:53;;;;;;;2.93;2.20;;;14.50;99.90;;;;;;4966830;28;20207;-78
2021/08/04 01:59:23;;;;;;;2.17;2.07;;;14.40;99.90;;;;;;4967631;28;20208;-81
2021/08/04 02:01:52;;;;;;;2.47;2.27;;;14.40;99.90;;;;;;4967170;28;20283;-78
2021/08/04 02:04:18;;;;;;;2.30;2.10;;;14.40;99.90;;;;;;4966050;28;20211;-80
2021/08/04 02:06:51;;;;;;;2.73;2.20;;;14.40;99.90;;;;;;4967413;28;20228;-80
2021/08/04 02:09:23;;;;;;;2.47;2.27;;;14.30;99.90;;;;;;4967286;28;20239;-79
2021/08/04 02:12:00;;;;;;;1.90;1.80;;;14.30;99.90;;;;;;4966729;28;20224;-79
2021/08/04 02:14:33;;;;;;;3.20;2.40;;;14.30;99.90;;;;;;4967186;28;20240;-79
2021/08/04 02:17:08;;;;;;;2.30;2.10;;;14.20;99.90;;;;;;4967478;28;20234;-80
2021/08/04 02:19:42;;;;;;;3.07;2.50;;;14.20;99.90;;;;;;4966564;28;20295;-79
2021/08/04 02:22:15;;;;;;;2.00;1.73;;;14.20;99.90;;;;;;4967242;28;20215;-80
2021/08/04 02:24:47;;;;;;;2.27;2.07;;;14.20;99.90;;;;;;4973560;28;20204;-80
2021/08/04 02:27:14;;;;;;;2.80;2.07;;;14.10;99.90;;;;;;4984648;28;20201;-78
2021/08/04 02:29:43;;;;;;;2.10;1.90;;;14.10;99.90;;;;;;4986848;28;20207;-79
2021/08/04 02:32:12;;;;;;;2.70;2.50;;;14.10;99.90;;;;;;4980766;28;20240;-79
2021/08/04 02:34:39;;;;;;;3.77;3.13;;;14.10;99.90;;;;;;4969129;28;20236;-79
2021/08/04 02:37:06;;;;;;;2.80;2.60;;;14.00;99.90;;;;;;4969215;28;20208;-78
2021/08/04 02:39:33;;;;;;;2.70;2.50;;;14.00;99.90;;;;;;4967534;28;20231;-79
2021/08/04 02:42:00;;;;;;;2.50;2.30;;;14.00;99.90;;;;;;4968359;28;20196;-80
2021/08/04 02:44:27;;;;;;;2.40;2.20;;;13.90;99.90;;;;;;5002578;28;20235;-79
2021/08/04 02:46:54;;;;;;;2.60;2.00;;;13.90;99.90;;;;;;5014706;28;20199;-78
2021/08/04 02:49:22;;;;;;;3.60;3.30;;;13.80;99.90;;;;;;5005851;28;20197;-80
2021/08/04 02:51:49;;;;;;;3.40;3.10;;;13.80;99.90;;;;;;5004926;28;20211;-80
2021/08/04 02:54:19;;;;;;;4.00;3.53;;;13.80;99.90;;;;;;5005363;28;20223;-79
2021/08/04 02:56:46;;;;;;;5.37;3.90;;;13.70;99.90;;;;;;5005376;28;20199;-78
2021/08/04 02:59:13;;;;;;;3.70;3.07;;;13.70;99.90;;;;;;5005044;28;20207;-80
2021/08/04 03:01:40;;;;;;;4.30;3.90;;;13.70;99.90;;;;;;4988867;28;20236;-80
2021/08/04 03:04:06;;;;;;;5.37;4.70;;;13.70;99.90;;;;;;4985830;28;20851;-79
2021/08/04 03:06:34;;;;;;;5.60;5.10;;;13.70;99.90;;;;;;4985432;28;20755;-78
2021/08/04 03:09:01;;;;;;;6.17;5.57;;;13.70;99.90;;;;;;4985136;28;20207;-79
2021/08/04 03:11:29;;;;;;;5.53;4.43;;;13.70;99.90;;;;;;4985434;28;20195;-80
2021/08/04 03:13:56;;;;;;;4.07;3.73;;;13.70;99.90;;;;;;4985816;28;20238;-81
2021/08/04 03:16:23;;;;;;;5.83;4.50;;;13.70;99.90;;;;;;5003125;28;20211;-79
2021/08/04 03:18:50;;;;;;;4.57;4.17;;;13.60;99.90;;;;;;5002944;28;20206;-79
2021/08/04 03:21:17;;;;;;;4.33;3.93;;;13.60;99.90;;;;;;4988893;28;20214;-78
2021/08/04 03:23:45;;;;;;;4.00;3.67;;;13.60;99.90;;;;;;4989648;28;20204;-81
2021/08/04 03:26:12;;;;;;;4.47;4.07;;;13.60;99.90;;;;;;4989520;28;20191;-79
2021/08/04 03:28:39;;;;;;;3.50;3.20;;;13.60;99.90;;;;;;4994810;28;20261;-79
2021/08/04 03:31:06;;;;;;;4.70;4.30;;;13.50;99.90;;;;;;5009356;28;20214;-80
2021/08/04 03:33:33;;;;;;;4.70;4.30;;;13.50;99.90;;;;;;5008330;28;20234;-79
2021/08/04 03:36:00;;;;;;;5.03;4.60;;;13.50;99.90;;;;;;4989568;28;20211;-79
2021/08/04 03:38:26;;;;;;;6.20;4.93;;;13.50;99.90;;;;;;4989817;28;20204;-79
2021/08/04 03:40:55;;;;;;;5.20;4.77;;;13.50;99.90;;;;;;4989498;28;20207;-80
2021/08/04 03:43:21;;;;;;;5.57;4.97;;;13.50;99.90;;;;;;4990744;28;20236;-78
2021/08/04 03:45:48;;;;;;;5.67;4.97;;;13.50;99.90;;;;;;4989730;28;20207;-80
2021/08/04 03:48:15;;;;;;;6.20;5.60;;;13.50;99.90;;;;;;4989093;28;20215;-79
2021/08/04 03:50:42;;;;;;;5.30;4.80;;;13.50;99.90;;;;;;4993271;28;20210;-79
2021/08/04 03:53:09;;;;;;;5.00;4.60;;;13.40;99.90;;;;;;5009246;28;20227;-80
2021/08/04 03:55:36;;;;;;;6.37;5.30;;;13.50;99.90;;;;;;4999304;28;20219;-80
2021/08/04 03:58:04;;;;;;;6.83;5.90;;;13.40;99.90;;;;;;4988970;28;20255;-79
2021/08/04 04:00:31;;;;;;;6.00;5.47;;;13.50;99.90;;;;;;4989028;28;20200;-79
2021/08/04 04:02:57;;;;;;;7.37;6.50;;;13.40;99.90;;;;;;4989629;28;20206;-79
2021/08/04 04:05:24;;;;;;;5.57;4.93;;;13.50;99.90;;;;;;4988485;28;20633;-79
2021/08/04 04:07:51;;;;;;;5.47;4.97;;;13.50;99.90;;;;;;4989208;28;20709;-79
2021/08/04 04:10:18;;;;;;;5.03;4.53;;;13.50;99.90;;;;;;4988849;28;20216;-80
2021/08/04 04:12:45;;;;;;;5.23;4.60;;;13.40;99.90;;;;;;4988583;28;20207;-79
2021/08/04 04:15:13;;;;;;;5.43;4.93;;;13.40;99.90;;;;;;4988837;28;20608;-80
2021/08/04 04:17:40;;;;;;;4.53;4.13;;;13.40;99.90;;;;;;4988600;28;20208;-79
2021/08/04 04:20:08;;;;;;;5.03;4.43;;;13.40;99.90;;;;;;4987975;28;20212;-79
2021/08/04 04:22:35;;;;;;;3.93;3.63;;;13.40;99.90;;;;;;4987990;28;20204;-80
2021/08/04 04:25:02;;;;;;;4.30;3.90;;;13.40;99.90;;;;;;4988532;28;20204;-79
2021/08/04 04:27:29;;;;;;;4.40;4.00;;;13.40;99.90;;;;;;4988467;28;20206;-80
2021/08/04 04:29:56;;;;;;;5.07;4.67;;;13.40;99.90;;;;;;4987067;28;20219;-80
2021/08/04 04:32:24;;;;;;;5.27;4.80;;;13.40;99.90;;;;;;4986581;28;20575;-80
2021/08/04 04:34:51;;;;;;;5.40;4.90;;;13.30;99.90;;;;;;4988373;28;20228;-79
2021/08/04 04:37:18;;;;;;;4.60;4.20;;;13.30;99.90;;;;;;4988291;28;20211;-79
2021/08/04 04:39:45;;;;;;;4.07;3.67;;;13.30;99.90;;;;;;4988112;28;20203;-81
2021/08/04 04:42:12;;;;;;;4.57;3.90;;;13.30;99.90;;;;;;4988777;28;20526;-79
2021/08/04 04:44:38;;;;;;;5.17;4.67;;;13.30;99.90;;;;;;4974562;28;20247;-79
2021/08/04 04:47:06;;;;;;;5.57;5.07;;;13.30;99.90;;;;;;4968612;28;20220;-80
2021/08/04 04:49:34;;;;;;;5.60;4.67;;;13.30;99.90;;;;;;4968022;28;20676;-80
2021/08/04 04:52:01;;;;;;;5.40;4.90;;;13.30;99.90;;;;;;4967706;28;20223;-79
2021/08/04 04:54:28;;;;;;;5.13;4.70;;;13.40;99.90;;;;;;4968061;28;20228;-80
2021/08/04 04:56:54;;;;;;;4.83;4.43;;;13.40;99.90;;;;;;4969236;28;20205;-79
2021/08/04 04:59:21;;;;;;;4.00;3.60;;;13.40;99.90;;;;;;4968131;28;20213;-79
2021/08/04 05:01:48;;;;;;;4.00;3.63;;;13.40;99.90;;;;;;4967908;28;20200;-80
2021/08/04 05:04:14;;;;;;;4.07;3.77;;;13.40;99.90;;;;;;4968425;28;20207;-79
2021/08/04 05:06:43;;;;;;;4.80;3.67;;;13.40;99.90;;;;;;4968466;28;20209;-79
2021/08/04 05:09:10;;;;;;;4.17;3.83;;;13.50;99.90;;;;;;4967252;28;20204;-81
2021/08/04 05:11:37;;;;;;;5.27;4.13;;;13.50;99.90;;;;;;4967908;28;20570;-80
2021/08/04 05:14:03;;;;;;;4.43;4.03;;;13.50;99.90;;;;;;4985703;28;20239;-79
2021/08/04 05:16:30;;;;;;;4.40;4.00;;;13.50;99.90;;;;;;4987873;28;20200;-79
2021/08/04 05:18:57;;;;;;;4.43;4.03;;;13.60;99.90;;;;;;4987876;28;20207;-81
2021/08/04 05:21:24;;;;;;;5.20;4.70;;;13.60;99.90;;;;;;4987636;28;20212;-79
2021/08/04 05:23:52;;;;;;;6.67;5.93;;;13.70;99.90;;;;;;4974157;28;20810;-79
2021/08/04 05:26:19;;;;;;;7.00;6.30;;;13.70;99.90;;;;;;4968555;28;20205;-79
2021/08/04 05:28:46;;;;;;;8.23;6.53;;;13.80;99.90;;;;;;4967918;28;20208;-80
2021/08/04 05:31:12;;;;;;;5.93;5.33;;;13.80;99.90;;;;;;4973150;28;20204;-80
2021/08/04 05:33:39;;;;;;;7.60;5.07;;;13.90;99.90;;;;;;4987408;28;20230;-80
2021/08/04 05:36:06;;;;;;;6.87;6.17;;;14.00;99.90;;;;;;4987465;28;20212;-80
2021/08/04 05:38:33;;;;;;;7.10;6.13;;;14.00;99.90;;;;;;4985971;28;20208;-80
2021/08/04 05:41:01;;;;;;;5.43;4.93;;;14.10;99.90;;;;;;4967927;28;20192;-81
2021/08/04 05:43:28;;;;;;;6.73;6.03;;;14.20;99.90;;;;;;4967576;28;20228;-80
2021/08/04 05:45:54;;;;;;;7.87;6.83;;;14.30;99.90;;;;;;4967504;28;20213;-79
2021/08/04 05:48:21;;;;;;;8.43;7.17;;;14.40;99.90;;;;;;4968016;28;20208;-80
2021/08/04 05:50:48;;;;;;;9.67;6.53;;;14.50;99.90;;;;;;4967334;28;20204;-81
2021/08/04 05:53:15;;;;;;;7.23;6.53;;;14.60;99.90;;;;;;4967175;28;20516;-79
2021/08/04 05:55:42;;;;;;;8.40;7.53;;;14.80;99.90;;;;;;4967610;28;20707;-79
2021/08/04 05:58:10;;;;;;;8.47;6.67;;;14.90;99.90;;;;;;4966367;28;20672;-81
2021/08/04 06:00:37;;;;;;;7.90;7.10;;;15.10;99.90;;;;;;4965837;28;20280;-80
2021/08/04 06:03:03;;;;;;;6.77;6.07;;;15.20;99.90;;;;;;4965806;28;20229;-79
2021/08/04 06:05:30;;;;;;;9.20;6.63;;;15.50;99.90;;;;;;4967265;28;20197;-80
2021/08/04 06:07:58;;;;;;;7.60;5.57;;;15.70;99.90;;;;;;4966308;28;20201;-79
2021/08/04 06:10:25;;;;;;;5.78;5.13;;;16.00;99.90;;;;;;4966454;28;20192;-78
2021/08/04 06:12:51;;;;;;;5.82;5.00;;;16.30;99.90;;;;;;4966018;28;20205;-82
2021/08/04 06:15:20;;;;;;;9.00;5.90;;;16.50;99.90;;;;;;4966197;28;20228;-81
2021/08/04 06:17:46;;;;;;;7.00;6.03;;;16.60;99.90;;;;;;4965676;28;20601;-79
2021/08/04 06:20:13;;;;;;;6.07;5.47;;;16.60;99.90;;;;;;4966684;28;20241;-78
2021/08/04 06:22:40;;;;;;;4.65;4.25;;;16.60;99.90;;;;;;4968153;28;20216;-78
2021/08/04 06:25:08;;;;;;;7.43;5.53;;;16.80;99.90;;;;;;4965621;28;20212;-79
2021/08/04 06:27:35;;;;;;;5.40;4.90;;;17.00;99.90;;;;;;4981196;28;20223;-78
2021/08/04 06:30:01;;;;;;;4.35;3.95;;;17.20;99.90;;;;;;4985633;28;20204;-80
2021/08/04 06:32:30;;;;;;;5.88;4.35;;;17.30;99.90;;;;;;4985963;28;20633;-78
2021/08/04 06:34:57;;;;;;;4.65;4.25;;;17.40;99.90;;;;;;4984814;28;20224;-79
2021/08/04 06:37:39;;;;;;;4.25;3.85;;;17.40;99.90;;;;;;5144622;27;20983;-79
2021/08/04 06:40:07;;;;;;;4.90;4.00;;;17.60;99.90;;;;;;5121375;28;20211;-78
2021/08/04 06:42:34;;;;;;;4.88;4.43;;;17.90;99.90;;;;;;5122550;27;20815;-76
2021/08/04 06:45:01;;;;;;;5.57;4.80;;;18.20;99.90;;;;;;5102469;28;20222;-78
2021/08/04 06:47:27;;;;;;;5.05;4.55;;;18.40;99.90;;;;;;5101502;28;20207;-79
2021/08/04 06:49:54;;;;;;;4.28;3.88;;;18.80;99.90;;;;;;5102033;28;20214;-81
2021/08/04 06:52:21;;;;;;;4.43;3.85;;;18.90;99.90;;;;;;5100804;28;20204;-79
2021/08/04 06:54:49;;;;;;;5.50;4.05;;;19.20;99.90;;;;;;5102378;28;20215;-77
2021/08/04 06:57:16;;;;;;;3.95;3.65;;;19.50;99.90;;;;;;5101244;28;21119;-79
2021/08/04 06:59:43;;;;;;;3.92;3.60;;;19.80;99.90;;;;;;5101996;28;20203;-78
2021/08/04 07:02:10;;;;;;;3.80;3.50;;;19.90;99.90;;;;;;5101204;28;20608;-79
2021/08/04 07:04:37;;;;;;;5.47;3.78;;;20.20;99.90;;;;;;5102383;28;20192;-80
2021/08/04 07:07:05;;;;;;;3.70;2.97;;;20.40;99.90;;;;;;5111680;28;20604;-79
2021/08/04 07:09:33;;;;;;;4.53;3.78;;;20.60;99.90;;;;;;5101433;28;20415;-80
2021/08/04 07:12:02;;;;;;;4.18;3.78;;;20.80;99.90;;;;;;5100682;28;20604;-79
2021/08/04 07:14:41;;;;;;;3.67;3.25;;;20.80;99.90;;;;;;5060414;28;20379;-78
2021/08/04 07:17:08;;;;;;;4.82;3.60;;;21.00;99.90;;;;;;5122025;27;20483;-80
2021/08/04 07:19:35;;;;;;;3.25;2.95;;;21.30;99.90;;;;;;5120750;28;20585;-79
2021/08/04 07:22:02;;;;;;;3.60;3.30;;;21.60;99.90;;;;;;5122097;28;20206;-81
2021/08/04 07:24:29;;;;;;;3.55;3.25;;;21.90;99.90;;;;;;5121867;28;20191;-80
2021/08/04 07:26:56;;;;;;;4.05;3.38;;;22.10;99.90;;;;;;5103677;28;20908;-79
2021/08/04 07:29:24;;;;;;;4.55;3.35;;;22.20;99.90;;;;;;5101062;28;20188;-81
2021/08/04 07:34:25;;;;;;;3.25;3.00;;;22.20;99.90;;;;;;5291146;22;20242;-81
2021/08/04 07:36:53;;;;;;;3.70;3.05;;;22.40;99.90;;;;;;5082089;28;20256;-79
2021/08/04 07:39:21;;;;;;;5.72;4.28;;;22.50;99.90;;;;;;5068088;28;20232;-81
2021/08/04 07:41:48;;;;;;;4.60;3.70;;;22.60;99.90;;;;;;5064743;28;20198;-80
2021/08/04 07:44:15;;;;;;;4.10;3.65;;;22.70;99.90;;;;;;5066368;28;20200;-80
2021/08/04 07:46:43;;;;;;;3.72;3.40;;;22.50;99.90;;;;;;5087195;28;20197;-81
2021/08/04 07:49:10;;;;;;;4.43;4.03;;;22.30;99.90;;;;;;5074812;28;20201;-79
2021/08/04 07:51:37;;;;;;;3.47;3.17;;;22.40;99.90;;;;;;5058759;28;20221;-82
2021/08/04 07:54:04;;;;;;;3.78;3.38;;;22.40;99.90;;;;;;5054515;28;20198;-85
2021/08/04 07:56:30;;;;;;;6.03;3.42;;;22.50;99.90;;;;;;5057895;28;20229;-79
2021/08/04 07:59:02;;;;;;;2.95;2.75;;;22.90;99.90;;;;;;5071174;28;20213;-81
2021/08/04 08:01:29;;;;;;;4.03;3.03;;;23.40;99.90;;;;;;5072762;28;20566;-81
2021/08/04 08:03:58;;;;;;;4.63;2.35;;;23.50;99.90;;;;;;5067428;28;20691;-78
2021/08/04 08:06:24;;;;;;;4.07;2.78;;;23.80;99.90;;;;;;5065211;28;20887;-81
2021/08/04 08:08:53;;;;;;;2.70;2.50;;;24.00;99.90;;;;;;5048292;28;20522;-79
2021/08/04 08:11:20;;;;;;;2.70;2.50;;;24.00;99.90;;;;;;5046040;28;20209;-77
2021/08/04 08:13:46;;;;;;;4.05;2.95;;;24.30;99.90;;;;;;5047135;28;20202;-77
2021/08/04 08:16:13;;;;;;;3.15;2.92;;;24.00;99.90;;;;;;5045675;28;20225;-80
2021/08/04 08:18:40;;;;;;;3.47;2.75;;;23.90;99.90;;;;;;5047081;28;20941;-79
2021/08/04 08:21:08;;;;;;;3.05;2.75;;;23.90;99.90;;;;;;5047117;28;20202;-79
2021/08/04 08:23:35;;;;;;;3.22;2.67;;;24.00;99.90;;;;;;5045099;28;20194;-79
2021/08/04 08:26:02;;;;;;;4.15;2.80;;;23.90;99.90;;;;;;5044756;28;20198;-79
2021/08/04 08:28:29;;;;;;;3.10;2.80;;;24.10;99.90;;;;;;5046791;28;20685;-79
2021/08/04 08:30:56;;;;;;;4.32;2.80;;;24.30;99.90;;;;;;5046667;28;20206;-81
2021/08/04 08:33:22;;;;;;;3.30;3.00;;;24.40;99.90;;;;;;5046039;28;20237;-81
2021/08/04 08:35:49;;;;;;;4.00;3.42;;;24.60;99.90;;;;;;5047620;28;20720;-81
2021/08/04 08:38:17;;;;;;;4.00;3.28;;;24.40;99.90;;;;;;5045614;28;20520;-79
2021/08/04 08:40:46;;;;;;;3.53;3.03;;;24.40;99.90;;;;;;5045347;28;20210;-80
2021/08/04 08:43:15;;;;;;;3.35;2.80;;;24.30;99.90;;;;;;5045078;28;20295;-79
2021/08/04 08:45:42;;;;;;;3.60;3.00;;;24.30;99.90;;;;;;5045016;28;20217;-78
2021/08/04 08:48:09;;;;;;;3.65;3.25;;;24.40;99.90;;;;;;5045298;28;20205;-80
2021/08/04 08:50:40;;;;;;;3.85;3.45;;;24.40;99.90;;;;;;5063636;28;20573;-80
2021/08/04 08:53:06;;;;;;;3.60;3.30;;;24.10;99.90;;;;;;5064897;28;20751;-81
2021/08/04 08:55:35;;;;;;;3.67;3.28;;;24.10;99.90;;;;;;5064479;28;20210;-78
2021/08/04 08:58:02;;;;;;;3.28;2.67;;;24.30;99.90;;;;;;5045231;28;20324;-80
2021/08/04 09:00:28;;;;;;;3.45;3.15;;;24.70;99.90;;;;;;5044045;28;20207;-79
2021/08/04 09:02:55;;;;;;;2.30;2.10;;;24.90;99.90;;;;;;5046054;28;20895;-77
2021/08/04 09:05:22;;;;;;;3.42;2.80;;;25.30;99.90;;;;;;5053857;28;20197;-78
2021/08/04 09:07:49;;;;;;;4.07;3.03;;;25.60;99.90;;;;;;5065685;28;20201;-79
2021/08/04 09:10:30;;;;;;;3.40;2.97;;;25.60;99.90;;;;;;5065174;28;20201;-79
2021/08/04 09:12:59;;;;;;;3.42;2.50;;;25.60;99.90;;;;;;5060899;28;20209;-78
2021/08/04 09:15:28;;;;;;;4.20;3.17;;;25.80;99.90;;;;;;5045501;28;20617;-78
2021/08/04 09:18:03;;;;;;;3.45;3.13;;;25.40;99.90;;;;;;5045201;28;20249;-81
2021/08/04 09:20:31;;;;;;;4.25;3.22;;;25.00;99.90;;;;;;5044753;28;20205;-78
2021/08/04 09:23:01;;;;;;;4.38;2.55;;;24.70;99.90;;;;;;5044999;28;20209;-79
2021/08/04 09:25:29;;;;;;;2.95;2.35;;;24.70;99.90;;;;;;5046144;28;20214;-79
2021/08/04 09:27:58;;;;;;;3.90;3.55;;;25.00;99.90;;;;;;5045295;28;20528;-79
2021/08/04 09:30:28;;;;;;;3.28;2.97;;;25.10;99.90;;;;;;5045561;28;20213;-80
2021/08/04 09:33:15;;;;;;;3.55;3.25;;;24.80;99.90;;;;;;5045250;28;20311;-80
2021/08/04 09:35:44;;;;;;;2.80;2.30;;;24.40;99.90;;;;;;5044968;28;20212;-80
2021/08/04 09:38:11;;;;;;;3.83;3.08;;;24.50;99.90;;;;;;5044072;28;20922;-79
2021/08/04 09:40:38;;;;;;;5.18;4.28;;;24.60;99.90;;;;;;5045247;28;20205;-80
2021/08/04 09:43:07;;;;;;;3.28;2.92;;;24.70;99.90;;;;;;5045404;28;20213;-80
2021/08/04 09:45:42;;;;;;;4.10;3.67;;;24.70;99.90;;;;;;5044868;28;20205;-79
2021/08/04 09:48:11;;;;;;;3.72;3.42;;;24.70;99.90;;;;;;5044648;28;20252;-80
2021/08/04 09:50:46;;;;;;;5.13;4.45;;;24.80;99.90;;;;;;5045098;28;20323;-80
2021/08/04 09:53:19;;;;;;;3.83;3.30;;;24.80;99.90;;;;;;5044841;28;20220;-80
2021/08/04 09:56:06;;;;;;;3.47;3.17;;;24.90;99.90;;;;;;5045004;28;20237;-81
2021/08/04 09:58:35;;;;;;;3.42;3.05;;;25.00;99.90;;;;;;5046435;28;20494;-81
2021/08/04 10:01:04;;;;;;;2.92;2.60;;;24.70;99.90;;;;;;5046879;28;20202;-78
2021/08/04 10:03:32;;;;;;;6.60;3.70;;;24.70;99.90;;;;;;5046819;28;20205;-83
2021/08/04 10:05:59;;;;;;;5.60;3.72;;;24.70;99.90;;;;;;5045929;28;20206;-80
2021/08/04 10:08:25;;;;;;;3.83;3.10;;;24.80;99.90;;;;;;5046313;28;20571;-80
2021/08/04 10:10:54;;;;;;;3.88;3.58;;;24.90;99.90;;;;;;5044512;28;20217;-80
2021/08/04 10:13:23;;;;;;;3.78;3.38;;;25.00;99.90;;;;;;5044778;28;20202;-81
2021/08/04 10:15:53;;;;;;;4.70;2.88;;;25.00;99.90;;;;;;5046772;28;20206;-80
2021/08/04 10:18:22;;;;;;;3.92;2.97;;;25.00;99.90;;;;;;5065525;28;20232;-80
2021/08/04 10:20:51;;;;;;;3.38;3.08;;;25.20;99.90;;;;;;5070306;28;20208;-81
2021/08/04 10:23:19;;;;;;;4.82;2.83;;;25.50;99.90;;;;;;5066611;28;20696;-79
2021/08/04 10:25:48;;;;;;;3.20;2.90;;;25.70;99.90;;;;;;5065219;28;20197;-78
2021/08/04 10:28:15;;;;;;;3.17;2.78;;;25.90;99.90;;;;;;5063757;28;20201;-81
2021/08/04 10:30:43;;;;;;;4.45;3.22;;;26.00;99.90;;;;;;5065377;28;20262;-77
2021/08/04 10:33:13;;;;;;;3.08;2.40;;;25.80;99.90;;;;;;5050461;28;20241;-78
2021/08/04 10:35:45;;;;;;;3.42;2.65;;;25.90;99.90;;;;;;5043566;28;20235;-77
2021/08/04 10:38:16;;;;;;;4.80;3.20;;;26.30;99.90;;;;;;5043972;28;20237;-81
2021/08/04 10:40:43;;;;;;;2.92;2.60;;;26.20;99.90;;;;;;5044911;28;20206;-78
2021/08/04 10:43:10;;;;;;;3.78;2.97;;;26.30;99.90;;;;;;5044830;28;20265;-79
2021/08/04 10:45:38;;;;;;;3.67;3.38;;;26.40;99.90;;;;;;5044493;28;20198;-80
2021/08/04 10:48:26;;;;;;;3.08;2.78;;;26.50;99.90;;;;;;5044924;28;20202;-81
2021/08/04 10:51:16;;;;;;;2.58;2.38;;;26.50;99.90;;;;;;5043757;28;20216;-78
2021/08/04 10:54:16;;;;;;;4.10;3.80;;;26.70;99.90;;;;;;5044380;28;20206;-85
2021/08/04 10:57:07;;;;;;;4.07;3.67;;;26.60;99.90;;;;;;5046011;28;20217;-82
2021/08/04 10:59:34;;;;;;;5.60;2.70;;;26.90;99.90;;;;;;5044151;28;20201;-85
2021/08/04 11:02:32;;;;;;;3.33;3.03;;;26.40;99.90;;;;;;5045070;28;20595;-81
2021/08/04 11:05:01;;;;;;;3.67;2.90;;;26.40;99.90;;;;;;5045061;28;20202;-84
2021/08/04 11:07:30;;;;;;;3.10;2.80;;;26.70;99.90;;;;;;5042309;28;20202;-81
2021/08/04 11:10:05;;;;;;;4.00;3.47;;;26.80;99.90;;;;;;5044257;28;20206;-81
2021/08/04 11:12:46;;;;;;;5.47;3.50;;;26.80;99.90;;;;;;5043331;28;20197;-82
2021/08/04 11:15:29;;;;;;;5.60;2.80;;;26.90;99.90;;;;;;5047409;28;20221;-81
2021/08/04 11:18:07;;;;;;;3.00;2.70;;;26.80;99.90;;;;;;5045482;28;20232;-83
2021/08/04 11:20:37;;;;;;;3.90;3.08;;;26.90;99.90;;;;;;5043807;28;20206;-81
2021/08/04 11:23:08;;;;;;;3.25;2.80;;;27.20;99.90;;;;;;5046371;28;20202;-82
2021/08/04 11:25:43;;;;;;;4.38;3.50;;;27.50;99.90;;;;;;5047785;28;20339;-81
2021/08/04 11:28:19;;;;;;;3.58;2.92;;;27.40;99.90;;;;;;5045891;28;20917;-77
2021/08/04 11:30:52;;;;;;;3.30;2.88;;;27.40;99.90;;;;;;5047434;28;20209;-78
2021/08/04 11:33:28;;;;;;;3.95;2.50;;;27.30;99.90;;;;;;5053927;28;20249;-78
2021/08/04 11:36:11;;;;;;;4.93;2.70;;;27.40;99.90;;;;;;5063261;28;20206;-79
2021/08/04 11:38:41;;;;;;;4.15;3.00;;;27.50;99.90;;;;;;5053022;28;20221;-79
2021/08/04 11:41:23;;;;;;;3.60;2.85;;;27.70;99.90;;;;;;5052478;28;20213;-78
2021/08/04 11:43:51;;;;;;;4.88;3.67;;;27.80;99.90;;;;;;5050902;28;20198;-77
2021/08/04 11:46:35;;;;;;;4.07;3.00;;;27.40;99.90;;;;;;5067102;28;20227;-81
2021/08/04 11:49:05;;;;;;;3.17;2.50;;;27.50;99.90;;;;;;5067420;28;20644;-80
2021/08/04 11:51:45;;;;;;;3.92;3.53;;;27.50;99.90;;;;;;5064619;28;20668;-79
2021/08/04 11:54:13;;;;;;;2.42;2.17;;;27.60;99.90;;;;;;5066178;28;20213;-81
2021/08/04 11:56:49;;;;;;;2.70;2.50;;;27.60;99.90;;;;;;5066115;28;20220;-78
2021/08/04 11:59:16;;;;;;;5.32;3.03;;;27.50;99.90;;;;;;5065437;28;20243;-76
2021/08/04 12:02:00;;;;;;;4.18;3.45;;;27.20;99.90;;;;;;5065871;28;20221;-76
2021/08/04 12:04:29;;;;;;;3.75;3.05;;;26.90;99.90;;;;;;5067071;28;20224;-79
2021/08/04 12:07:02;;;;;;;2.75;2.50;;;27.00;99.90;;;;;;5065523;28;20209;-80
2021/08/04 12:09:31;;;;;;;3.05;2.40;;;26.70;99.90;;;;;;5045703;28;20205;-79
2021/08/04 12:12:00;;;;;;;4.55;2.50;;;26.70;99.90;;;;;;5047310;28;20598;-83
2021/08/04 12:14:27;;;;;;;2.65;2.20;;;26.60;99.90;;;;;;5047906;28;20213;-77
2021/08/04 12:16:57;;;;;;;2.78;2.50;;;26.40;99.90;;;;;;5046764;28;20213;-82
2021/08/04 12:19:36;;;;;;;3.13;2.30;;;26.20;99.90;;;;;;5061680;28;20214;-80
2021/08/04 12:22:07;;;;;;;2.97;2.40;;;26.00;99.90;;;;;;5063428;28;20220;-79
2021/08/04 12:24:42;;;;;;;3.08;2.45;;;25.80;99.90;;;;;;5063803;28;20312;-82
2021/08/04 12:27:09;;;;;;;5.10;2.42;;;25.50;99.90;;;;;;5057728;28;20224;-79
2021/08/04 12:29:36;;;;;;;4.00;2.95;;;25.20;99.90;;;;;;5047498;28;20907;-84
2021/08/04 12:32:12;;;;;;;2.78;2.13;;;25.00;99.90;;;;;;5059712;28;20257;-79
2021/08/04 12:34:47;;;;;;;3.17;2.85;;;24.90;99.90;;;;;;5067931;28;20232;-83
2021/08/04 12:37:16;;;;;;;2.53;2.33;;;24.90;99.90;;;;;;5063811;28;20216;-81
2021/08/04 12:39:44;;;;;;;4.57;3.50;;;24.80;99.90;;;;;;5069334;28;20216;-79
2021/08/04 12:42:12;;;;;;;5.75;3.83;;;24.80;99.90;;;;;;5068861;28;20210;-80
2021/08/04 12:44:39;;;;;;;2.58;2.38;;;24.80;99.90;;;;;;5068453;28;20244;-77
2021/08/04 12:47:12;;;;;;;3.28;2.97;;;25.00;99.90;;;;;;5058350;28;20217;-80
2021/08/04 12:49:39;;;;;;;3.47;2.63;;;25.50;99.90;;;;;;5068827;28;20220;-76
2021/08/04 12:52:07;;;;;;;4.85;2.95;;;25.90;99.90;;;;;;5062277;28;20235;-81
2021/08/04 12:54:36;;;;;;;3.92;2.50;;;26.30;99.90;;;;;;5073803;28;20241;-76
2021/08/04 12:57:20;;;;;;;4.28;2.20;;;26.80;99.90;;;;;;5071052;28;20205;-76
2021/08/04 12:59:47;;;;;;;3.67;2.70;;;27.30;99.90;;;;;;5057321;28;20232;-76